Terminal Aerodrome Forecast
Issued by NWS Jackson, KY

Home | Current Version | Previous Version | Text Only | Print | Product List | Glossary On
Versions: 1 2 3 4 5 6 7 8 9 10 11 12 13 14 15
859
FTUS43 KJKL 031720
TAFJKL
TAF
KJKL 031720Z 0318/0418 29005KT P6SM BKN040
      TEMPO 0318/0320 BKN030
     FM040600 VRB03KT P6SM OVC025
     FM040700 VRB03KT P6SM OVC015
     FM040900 VRB03KT P6SM OVC008
     FM041400 25004KT P6SM BKN060=

USA.gov is the U.S. government's official web portal to all federal, state and local government web resources and services.